Time;durP1;ratioP1;P1;durP2;ratioP2;P2;SDS_P1;SDS_P2;PMS_P1;PMS_P2;Temp;Humidity;BMP_temperature;BMP_pressure;BME280_temperature;BME280_humidity;BME280_pressure;Samples;Min_cycle;Max_cycle;Signal;HPM_P1;HPM_P2
2021/12/23 00:01:58;;;;;;;45.90;27.17;;;-2.50;99.90;;;;;;5039894;28;20022;-80
2021/12/23 00:04:23;;;;;;;48.65;28.10;;;-2.50;99.90;;;;;;5041782;28;20033;-80
2021/12/23 00:06:49;;;;;;;45.33;25.40;;;-2.50;99.90;;;;;;5042602;28;20013;-79
2021/12/23 00:09:15;;;;;;;48.90;26.40;;;-2.50;99.90;;;;;;5041401;28;20024;-80
2021/12/23 00:11:40;;;;;;;41.22;25.15;;;-2.50;99.90;;;;;;5041156;28;20495;-79
2021/12/23 00:14:09;;;;;;;44.10;26.15;;;-2.50;99.90;;;;;;5039598;28;20017;-78
2021/12/23 00:17:16;;;;;;;44.92;27.77;;;-2.60;99.90;;;;;;5040270;28;20045;-80
2021/12/23 00:19:57;;;;;;;42.08;26.90;;;-2.60;99.90;;;;;;5037592;28;20028;-79
2021/12/23 00:25:07;;;;;;;46.85;28.17;;;-2.80;99.90;;;;;;5037354;28;20120;-79
2021/12/23 00:27:33;;;;;;;46.13;28.02;;;-2.80;99.90;;;;;;5037307;28;20497;-80
2021/12/23 00:29:58;;;;;;;46.42;26.55;;;-2.90;99.90;;;;;;5035704;28;20061;-81
2021/12/23 00:32:24;;;;;;;46.72;27.02;;;-2.90;99.90;;;;;;5036428;28;20052;-79
2021/12/23 00:34:49;;;;;;;48.38;26.08;;;-2.80;99.90;;;;;;5036159;28;20049;-80
2021/12/23 00:37:18;;;;;;;45.70;27.05;;;-2.90;99.90;;;;;;5036081;28;20056;-80
2021/12/23 00:39:45;;;;;;;46.53;27.35;;;-2.90;99.90;;;;;;5032400;28;20022;-80
2021/12/23 00:42:11;;;;;;;49.53;27.35;;;-2.80;99.90;;;;;;5037829;28;20021;-80
2021/12/23 00:44:40;;;;;;;44.13;26.23;;;-2.90;99.90;;;;;;5041547;28;20143;-80
2021/12/23 00:47:06;;;;;;;48.85;27.75;;;-2.90;99.90;;;;;;5054584;28;20027;-79
2021/12/23 00:49:31;;;;;;;47.65;28.77;;;-3.00;99.90;;;;;;5059447;28;20835;-79
2021/12/23 00:51:58;;;;;;;50.63;27.10;;;-3.00;99.90;;;;;;5058136;28;20041;-79
2021/12/23 00:54:23;;;;;;;50.10;29.00;;;-3.00;99.90;;;;;;5057740;28;20155;-81
2021/12/23 00:56:51;;;;;;;44.80;26.08;;;-3.10;99.90;;;;;;5046853;28;20030;-80
2021/12/23 00:59:16;;;;;;;46.60;26.35;;;-2.90;99.90;;;;;;5037951;28;20029;-80
2021/12/23 01:01:42;;;;;;;45.03;27.02;;;-3.00;99.90;;;;;;5036179;28;20017;-77
2021/12/23 01:04:08;;;;;;;49.97;28.88;;;-3.10;99.90;;;;;;5034399;28;20100;-81
2021/12/23 01:06:35;;;;;;;45.42;25.52;;;-3.10;99.90;;;;;;5034666;28;20056;-77
2021/12/23 01:09:00;;;;;;;50.42;27.13;;;-3.20;99.90;;;;;;5032812;28;20072;-79
2021/12/23 01:11:27;;;;;;;46.05;27.00;;;-3.10;99.90;;;;;;5034670;28;20655;-80
2021/12/23 01:14:42;;;;;;;51.15;28.75;;;-3.20;99.90;;;;;;5034327;28;20021;-79
2021/12/23 01:19:24;;;;;;;45.45;27.83;;;-3.10;99.90;;;;;;5034408;28;20515;-78
2021/12/23 01:21:51;;;;;;;52.50;28.25;;;-3.10;99.90;;;;;;5034848;28;20038;-79
2021/12/23 01:24:17;;;;;;;50.60;28.77;;;-3.10;99.90;;;;;;5034097;28;20424;-77
2021/12/23 01:26:43;;;;;;;52.63;29.63;;;-3.20;99.90;;;;;;5031537;28;20029;-79
2021/12/23 01:29:09;;;;;;;45.08;26.10;;;-3.10;99.90;;;;;;5034118;28;20032;-80
2021/12/23 01:31:39;;;;;;;46.58;27.63;;;-3.10;99.90;;;;;;5036554;28;20081;-79
2021/12/23 01:34:06;;;;;;;43.28;26.15;;;-2.90;99.90;;;;;;5035268;28;20552;-79
2021/12/23 01:36:32;;;;;;;47.92;27.50;;;-2.90;99.90;;;;;;5036191;28;20036;-78
2021/12/23 01:38:58;;;;;;;53.10;28.13;;;-3.10;99.90;;;;;;5031126;28;20486;-78
2021/12/23 01:41:25;;;;;;;45.67;26.95;;;-3.10;99.90;;;;;;5048731;28;20120;-80
2021/12/23 01:43:52;;;;;;;52.72;29.15;;;-3.10;99.90;;;;;;5031399;28;20021;-78
2021/12/23 01:46:19;;;;;;;42.08;25.88;;;-3.10;99.90;;;;;;5032788;28;20366;-79
2021/12/23 01:48:44;;;;;;;41.80;25.73;;;-3.10;99.90;;;;;;5036166;28;20014;-79
2021/12/23 01:51:10;;;;;;;47.40;27.40;;;-3.00;99.90;;;;;;5034723;28;20057;-80
2021/12/23 01:53:35;;;;;;;43.92;26.63;;;-3.10;99.90;;;;;;5035644;28;20026;-79
2021/12/23 01:56:02;;;;;;;50.10;26.70;;;-3.00;99.90;;;;;;5034880;28;20025;-80
2021/12/23 01:58:28;;;;;;;50.22;26.02;;;-3.00;99.90;;;;;;5033778;28;20017;-79
2021/12/23 02:01:21;;;;;;;45.33;28.23;;;-3.00;99.90;;;;;;5036169;28;20029;-80
2021/12/23 02:03:47;;;;;;;43.35;25.90;;;-3.00;99.90;;;;;;5031386;28;20151;-77
2021/12/23 02:06:13;;;;;;;43.80;26.08;;;-2.80;99.90;;;;;;5033740;28;20120;-78
2021/12/23 02:08:40;;;;;;;49.13;25.88;;;-2.70;99.90;;;;;;5036310;28;20091;-78
2021/12/23 02:11:08;;;;;;;48.22;25.98;;;-2.60;99.90;;;;;;5034090;28;20497;-78
2021/12/23 02:13:34;;;;;;;44.03;26.92;;;-2.60;99.90;;;;;;5038890;22;20325;-79
2021/12/23 02:16:00;;;;;;;43.17;25.67;;;-2.70;99.90;;;;;;5024938;28;20342;-79
2021/12/23 02:18:27;;;;;;;46.85;27.15;;;-2.60;99.90;;;;;;5013899;28;20041;-80
2021/12/23 02:20:53;;;;;;;42.38;25.95;;;-2.70;99.90;;;;;;5028796;28;20036;-79
2021/12/23 02:23:19;;;;;;;44.22;26.65;;;-2.60;99.90;;;;;;5028113;28;20401;-80
2021/12/23 02:25:44;;;;;;;41.92;26.73;;;-2.70;99.90;;;;;;5023560;28;20022;-80
2021/12/23 02:28:14;;;;;;;45.92;25.45;;;-2.60;99.90;;;;;;5019507;28;20053;-79
2021/12/23 02:30:40;;;;;;;41.47;25.65;;;-2.70;99.90;;;;;;5023659;28;20022;-79
2021/12/23 02:33:07;;;;;;;44.80;25.70;;;-2.80;99.90;;;;;;5024109;28;20034;-80
2021/12/23 02:35:34;;;;;;;42.92;25.23;;;-2.80;99.90;;;;;;5023727;28;20053;-78
2021/12/23 02:38:00;;;;;;;42.55;25.23;;;-2.70;99.90;;;;;;5019551;28;20468;-78
2021/12/23 02:40:43;;;;;;;45.55;26.05;;;-2.90;99.90;;;;;;5018875;28;20014;-79
2021/12/23 02:43:18;;;;;;;43.25;25.38;;;-2.90;99.90;;;;;;5015266;28;20113;-79
2021/12/23 02:45:46;;;;;;;39.88;23.83;;;-2.90;99.90;;;;;;5025460;28;20028;-79
2021/12/23 02:48:14;;;;;;;40.88;23.58;;;-2.90;99.90;;;;;;5019380;28;20025;-79
2021/12/23 02:50:40;;;;;;;41.42;25.35;;;-2.90;99.90;;;;;;5020326;28;20049;-80
2021/12/23 02:53:06;;;;;;;43.95;26.45;;;-3.00;99.90;;;;;;5022703;28;20117;-79
2021/12/23 02:55:32;;;;;;;43.05;25.13;;;-2.80;99.90;;;;;;5024195;28;20080;-79
2021/12/23 02:57:57;;;;;;;39.35;23.65;;;-2.80;99.90;;;;;;5021831;28;20028;-80
2021/12/23 03:00:23;;;;;;;43.35;23.25;;;-2.80;99.90;;;;;;5019527;28;20138;-80
2021/12/23 03:02:49;;;;;;;38.08;24.58;;;-2.90;99.90;;;;;;5025162;28;20662;-78
2021/12/23 03:05:14;;;;;;;44.42;25.73;;;-2.90;99.90;;;;;;5020036;28;20068;-79
2021/12/23 03:08:06;;;;;;;41.33;26.02;;;-2.90;99.90;;;;;;5028279;28;20026;-81
2021/12/23 03:10:31;;;;;;;38.92;23.35;;;-2.80;99.90;;;;;;5030722;28;20066;-79
2021/12/23 03:12:57;;;;;;;41.03;24.60;;;-2.80;99.90;;;;;;5036442;28;20081;-79
2021/12/23 03:15:23;;;;;;;36.28;22.10;;;-2.80;99.90;;;;;;5037930;28;20028;-79
2021/12/23 03:17:48;;;;;;;38.38;23.00;;;-2.80;99.90;;;;;;5020967;28;20085;-79
2021/12/23 03:20:14;;;;;;;40.40;24.70;;;-2.70;99.90;;;;;;5027730;28;20064;-80
2021/12/23 03:22:40;;;;;;;41.08;23.55;;;-2.70;99.90;;;;;;5027737;28;20089;-78
2021/12/23 03:25:06;;;;;;;42.47;23.70;;;-2.80;99.90;;;;;;5022537;28;20389;-79
2021/12/23 03:27:32;;;;;;;39.33;25.20;;;-2.70;99.90;;;;;;5024748;28;20071;-79
2021/12/23 03:29:57;;;;;;;40.60;24.17;;;-2.60;99.90;;;;;;5010267;28;20484;-79
2021/12/23 03:32:24;;;;;;;41.28;23.95;;;-2.70;99.90;;;;;;5028901;28;20108;-79
2021/12/23 03:34:50;;;;;;;45.03;25.27;;;-2.70;99.90;;;;;;5028559;28;20097;-80
2021/12/23 03:37:15;;;;;;;43.00;24.85;;;-2.70;99.90;;;;;;5018606;28;20034;-79
2021/12/23 03:39:41;;;;;;;45.38;24.02;;;-2.80;99.90;;;;;;5029106;28;20032;-78
2021/12/23 03:42:07;;;;;;;40.22;24.10;;;-2.80;99.90;;;;;;5027902;28;20022;-79
2021/12/23 03:44:33;;;;;;;43.13;22.42;;;-2.80;99.90;;;;;;5011778;28;20150;-79
2021/12/23 03:46:58;;;;;;;40.28;22.95;;;-2.70;99.90;;;;;;5023974;28;20050;-79
2021/12/23 03:49:24;;;;;;;41.25;25.30;;;-2.50;99.90;;;;;;5029248;28;20101;-79
2021/12/23 03:51:50;;;;;;;43.10;23.23;;;-2.50;99.90;;;;;;5028834;28;20056;-79
2021/12/23 03:54:15;;;;;;;40.22;24.08;;;-2.60;99.90;;;;;;5033028;28;20025;-79
2021/12/23 03:56:41;;;;;;;40.22;24.00;;;-2.70;99.90;;;;;;5024034;28;20018;-79
2021/12/23 03:59:07;;;;;;;38.10;23.90;;;-2.70;99.90;;;;;;5026311;28;20079;-79
2021/12/23 04:01:33;;;;;;;39.15;22.98;;;-2.60;99.90;;;;;;5027419;28;20057;-80
2021/12/23 04:03:58;;;;;;;36.55;23.83;;;-2.40;99.90;;;;;;5029724;28;20126;-79
2021/12/23 04:06:26;;;;;;;40.28;24.13;;;-2.40;99.90;;;;;;5030278;28;20022;-79
2021/12/23 04:08:53;;;;;;;42.80;24.17;;;-2.50;99.90;;;;;;5019222;28;20018;-79
2021/12/23 04:11:19;;;;;;;38.40;23.20;;;-2.40;99.90;;;;;;5020390;28;20579;-79
2021/12/23 04:13:45;;;;;;;39.97;23.73;;;-2.50;99.90;;;;;;5028000;28;20029;-81
2021/12/23 04:16:10;;;;;;;38.67;23.20;;;-2.50;99.90;;;;;;5024347;28;20040;-79
2021/12/23 04:18:36;;;;;;;40.25;23.75;;;-2.50;99.90;;;;;;5025369;28;20022;-80
2021/12/23 04:21:01;;;;;;;36.15;22.55;;;-2.40;99.90;;;;;;5023055;28;20038;-78
2021/12/23 04:23:31;;;;;;;37.55;21.95;;;-2.40;99.90;;;;;;5027086;28;20037;-81
2021/12/23 04:25:58;;;;;;;40.05;22.85;;;-2.40;99.90;;;;;;5031373;28;20087;-80
2021/12/23 04:28:25;;;;;;;38.40;22.73;;;-2.50;99.90;;;;;;5024560;28;20022;-79
2021/12/23 04:30:51;;;;;;;36.30;22.42;;;-2.30;99.90;;;;;;5023624;28;20022;-78
2021/12/23 04:33:17;;;;;;;40.00;22.27;;;-2.30;99.90;;;;;;5026390;28;20018;-80
2021/12/23 04:35:42;;;;;;;38.03;22.15;;;-2.20;99.90;;;;;;5025672;28;20112;-79
2021/12/23 04:38:08;;;;;;;39.75;22.95;;;-2.40;99.90;;;;;;5028370;28;20061;-78
2021/12/23 04:40:35;;;;;;;42.00;23.63;;;-2.50;99.90;;;;;;5035665;28;20501;-79
2021/12/23 04:43:03;;;;;;;41.63;22.80;;;-2.60;99.90;;;;;;5039605;28;20022;-79
2021/12/23 04:45:28;;;;;;;37.25;21.42;;;-2.60;99.90;;;;;;5011030;28;20045;-80
2021/12/23 04:47:54;;;;;;;35.47;21.80;;;-2.60;99.90;;;;;;5029476;28;20021;-79
2021/12/23 04:50:19;;;;;;;36.85;22.17;;;-2.60;99.90;;;;;;5032550;28;20025;-79
2021/12/23 04:52:46;;;;;;;32.67;20.77;;;-2.40;99.90;;;;;;5028597;28;20017;-78
2021/12/23 04:55:13;;;;;;;33.90;20.77;;;-2.40;99.90;;;;;;5028517;28;20026;-80
2021/12/23 04:57:39;;;;;;;34.28;21.08;;;-2.30;99.90;;;;;;5029066;28;20028;-79
2021/12/23 05:00:10;;;;;;;32.72;20.30;;;-2.40;99.90;;;;;;5018791;28;20022;-80
2021/12/23 05:02:35;;;;;;;39.85;22.38;;;-2.40;99.90;;;;;;5017028;28;20018;-79
2021/12/23 05:05:01;;;;;;;35.45;20.45;;;-2.30;99.90;;;;;;5023167;28;20491;-78
2021/12/23 05:07:27;;;;;;;40.85;22.88;;;-2.20;99.90;;;;;;5024256;28;20018;-79
2021/12/23 05:09:52;;;;;;;40.90;23.25;;;-2.20;99.90;;;;;;5022824;28;20034;-80
2021/12/23 05:12:18;;;;;;;34.90;21.98;;;-2.30;99.90;;;;;;5030993;28;20681;-79
2021/12/23 05:14:43;;;;;;;34.70;22.10;;;-2.40;99.90;;;;;;5023417;28;20029;-79
2021/12/23 05:17:09;;;;;;;36.28;21.98;;;-2.50;99.90;;;;;;5025971;28;20109;-79
2021/12/23 05:19:35;;;;;;;37.33;21.17;;;-2.50;99.90;;;;;;5027017;28;20025;-79
2021/12/23 05:22:00;;;;;;;35.95;21.33;;;-2.20;99.90;;;;;;5034809;28;20022;-79
2021/12/23 05:24:26;;;;;;;35.20;20.02;;;-2.30;99.90;;;;;;5028499;28;20017;-80
2021/12/23 05:26:52;;;;;;;40.15;22.13;;;-2.40;99.90;;;;;;5024955;28;20065;-79
2021/12/23 05:29:17;;;;;;;32.28;20.63;;;-2.60;99.90;;;;;;5025664;28;20037;-79
2021/12/23 05:31:43;;;;;;;38.60;22.42;;;-2.60;99.90;;;;;;5025291;28;20025;-79
2021/12/23 05:34:08;;;;;;;33.28;22.02;;;-2.70;99.90;;;;;;5023679;28;20036;-79
2021/12/23 05:36:34;;;;;;;38.83;23.67;;;-2.70;99.90;;;;;;5019431;28;20024;-80
2021/12/23 05:38:59;;;;;;;38.63;22.73;;;-2.60;99.90;;;;;;5019524;28;20036;-79
2021/12/23 05:41:27;;;;;;;34.35;20.67;;;-2.50;99.90;;;;;;5026788;28;20036;-79
2021/12/23 05:43:59;;;;;;;34.72;21.80;;;-2.50;99.90;;;;;;5026624;28;20108;-79
2021/12/23 05:46:25;;;;;;;37.45;21.70;;;-2.50;99.90;;;;;;5025271;28;20076;-79
2021/12/23 05:48:51;;;;;;;33.05;19.70;;;-2.50;99.90;;;;;;5024522;28;20547;-80
2021/12/23 05:51:17;;;;;;;39.35;23.15;;;-2.50;99.90;;;;;;5024136;28;20120;-79
2021/12/23 05:53:42;;;;;;;34.55;20.58;;;-2.40;99.90;;;;;;5029146;28;20055;-79
2021/12/23 05:56:08;;;;;;;33.85;21.05;;;-2.50;99.90;;;;;;5023652;28;20052;-79
2021/12/23 05:58:33;;;;;;;34.30;21.30;;;-2.30;99.90;;;;;;5029919;28;20032;-79
2021/12/23 06:01:00;;;;;;;36.83;22.20;;;-2.30;99.90;;;;;;5025868;28;20026;-80
2021/12/23 06:03:26;;;;;;;42.10;21.13;;;-2.30;99.90;;;;;;5030232;28;20492;-79
2021/12/23 06:05:52;;;;;;;36.95;21.85;;;-2.40;99.90;;;;;;5025992;28;20010;-79
2021/12/23 06:08:17;;;;;;;37.30;20.88;;;-2.50;99.90;;;;;;5031921;28;20627;-78
2021/12/23 06:10:43;;;;;;;37.25;21.92;;;-2.70;99.90;;;;;;5027939;28;20033;-79
2021/12/23 06:13:09;;;;;;;37.33;21.60;;;-2.70;99.90;;;;;;5036813;28;20018;-80
2021/12/23 06:15:34;;;;;;;34.78;21.60;;;-2.70;99.90;;;;;;5037457;28;20026;-78
2021/12/23 06:18:00;;;;;;;34.92;20.02;;;-2.70;99.90;;;;;;5036784;28;20014;-79
2021/12/23 06:20:25;;;;;;;38.22;21.48;;;-2.70;99.90;;;;;;5022486;28;20083;-79
2021/12/23 06:22:51;;;;;;;37.03;21.48;;;-2.50;99.90;;;;;;5027758;28;20107;-78
2021/12/23 06:25:17;;;;;;;41.08;22.30;;;-2.50;99.90;;;;;;5024327;28;20025;-79
2021/12/23 06:27:43;;;;;;;36.30;21.48;;;-2.60;99.90;;;;;;5022847;28;20022;-79
2021/12/23 06:30:17;;;;;;;34.95;20.67;;;-2.50;99.90;;;;;;5027758;28;20052;-79
2021/12/23 06:32:47;;;;;;;37.83;21.10;;;-2.30;99.90;;;;;;5021343;28;20029;-79
2021/12/23 06:35:13;;;;;;;37.13;20.20;;;-2.30;99.90;;;;;;5021695;28;20030;-80
2021/12/23 06:37:39;;;;;;;35.17;21.40;;;-2.40;99.90;;;;;;5019671;28;20080;-79
2021/12/23 06:40:05;;;;;;;35.55;20.90;;;-2.40;99.90;;;;;;5033602;28;20030;-80
2021/12/23 06:42:31;;;;;;;36.85;20.67;;;-2.30;99.90;;;;;;5047114;28;20030;-79
2021/12/23 06:44:56;;;;;;;34.90;20.15;;;-2.30;99.90;;;;;;5036347;28;20030;-79
2021/12/23 06:47:22;;;;;;;33.20;21.73;;;-2.30;99.90;;;;;;5047257;28;20015;-79
2021/12/23 06:49:47;;;;;;;33.75;19.95;;;-2.20;99.90;;;;;;5040344;28;20021;-80
2021/12/23 06:52:14;;;;;;;32.72;20.00;;;-2.10;99.90;;;;;;5030770;28;20034;-79
2021/12/23 06:54:43;;;;;;;35.78;20.95;;;-2.30;99.90;;;;;;5032192;28;20025;-78
2021/12/23 06:57:09;;;;;;;31.73;20.02;;;-2.20;99.90;;;;;;5042542;28;20037;-80
2021/12/23 06:59:35;;;;;;;31.60;19.83;;;-2.00;99.90;;;;;;5031305;28;20021;-79
2021/12/23 07:02:00;;;;;;;37.05;21.45;;;-2.20;99.90;;;;;;5028277;28;20022;-80
2021/12/23 07:04:30;;;;;;;33.55;20.10;;;-2.10;99.90;;;;;;5041608;28;20098;-79
2021/12/23 07:07:08;;;;;;;37.78;22.10;;;-2.20;99.90;;;;;;5007949;28;20029;-80
2021/12/23 07:09:36;;;;;;;36.10;21.60;;;-2.10;99.90;;;;;;5020964;28;20021;-80
2021/12/23 07:12:02;;;;;;;37.15;21.75;;;-2.10;99.90;;;;;;5021018;28;20022;-79
2021/12/23 07:14:28;;;;;;;35.75;20.75;;;-1.90;99.90;;;;;;5035797;28;20033;-80
2021/12/23 07:16:53;;;;;;;35.95;21.13;;;-1.80;99.90;;;;;;5024848;28;20033;-80
2021/12/23 07:19:19;;;;;;;33.63;19.83;;;-2.00;99.90;;;;;;5024551;28;20014;-78
2021/12/23 07:21:44;;;;;;;36.58;22.00;;;-2.10;99.90;;;;;;5022298;28;20034;-80
2021/12/23 07:24:10;;;;;;;39.05;21.50;;;-2.30;99.90;;;;;;5021286;28;20102;-80
2021/12/23 07:26:36;;;;;;;38.92;21.02;;;-2.30;99.90;;;;;;5027653;28;20060;-80
2021/12/23 07:29:01;;;;;;;37.22;20.67;;;-2.40;99.90;;;;;;5031367;28;20022;-80
2021/12/23 07:31:27;;;;;;;36.55;20.80;;;-2.40;99.90;;;;;;5027089;28;20087;-79
2021/12/23 07:33:53;;;;;;;34.85;20.60;;;-2.20;99.90;;;;;;5027991;28;20371;-80
2021/12/23 07:36:22;;;;;;;35.67;21.20;;;-2.20;99.90;;;;;;5021713;28;20039;-79
2021/12/23 07:38:48;;;;;;;36.05;22.27;;;-2.10;99.90;;;;;;5016987;28;20087;-79
2021/12/23 07:41:14;;;;;;;36.53;21.80;;;-2.20;99.90;;;;;;5025616;28;20032;-79
2021/12/23 07:46:06;;;;;;;37.67;22.33;;;-2.30;99.90;;;;;;5028973;28;20033;-79
2021/12/23 07:48:32;;;;;;;36.55;23.20;;;-2.30;99.90;;;;;;5022551;28;20415;-79
2021/12/23 07:50:59;;;;;;;34.55;21.75;;;-2.10;99.90;;;;;;5029423;28;20036;-79
2021/12/23 07:53:25;;;;;;;36.75;21.42;;;-2.10;99.90;;;;;;5028777;28;20056;-80
2021/12/23 07:55:50;;;;;;;37.20;21.98;;;-2.00;99.90;;;;;;5024191;28;20022;-80
2021/12/23 07:58:16;;;;;;;39.97;21.90;;;-1.80;99.90;;;;;;5022701;28;20505;-79
2021/12/23 08:00:42;;;;;;;35.90;21.10;;;-1.90;99.90;;;;;;5032205;28;20119;-79
2021/12/23 08:03:08;;;;;;;36.45;22.15;;;-2.00;99.90;;;;;;5033793;28;20033;-79
2021/12/23 08:05:34;;;;;;;37.00;23.15;;;-2.00;99.90;;;;;;5034450;28;20018;-80
2021/12/23 08:08:00;;;;;;;35.20;21.35;;;-2.00;99.90;;;;;;5036986;28;20044;-80
2021/12/23 08:10:26;;;;;;;37.80;22.83;;;-2.00;99.90;;;;;;5043370;28;20041;-79
2021/12/23 08:12:55;;;;;;;34.35;21.05;;;-1.90;99.90;;;;;;5041602;28;20184;-80
2021/12/23 08:15:21;;;;;;;35.25;21.60;;;-1.80;99.90;;;;;;5046638;28;20040;-79
2021/12/23 08:17:47;;;;;;;40.75;23.75;;;-1.60;99.90;;;;;;5041425;28;20006;-80
2021/12/23 08:20:15;;;;;;;31.10;20.95;;;-1.70;99.90;;;;;;5049096;28;20117;-79
2021/12/23 08:22:41;;;;;;;36.60;22.10;;;-1.70;99.90;;;;;;5043474;28;20045;-80
2021/12/23 08:25:08;;;;;;;34.72;21.88;;;-1.60;99.90;;;;;;5043667;28;20057;-77
2021/12/23 08:27:34;;;;;;;38.45;22.70;;;-1.60;99.90;;;;;;5044929;28;20026;-79
2021/12/23 08:30:01;;;;;;;37.30;21.73;;;-1.50;99.90;;;;;;5036367;28;20082;-79
2021/12/23 08:32:26;;;;;;;36.33;21.83;;;-1.30;99.90;;;;;;5023574;28;20487;-80
2021/12/23 08:34:52;;;;;;;34.88;22.05;;;-1.10;99.90;;;;;;5012440;28;20104;-79
2021/12/23 08:37:18;;;;;;;33.03;21.50;;;-1.00;99.90;;;;;;5025773;28;20045;-78
2021/12/23 08:39:44;;;;;;;32.90;20.73;;;-1.00;99.90;;;;;;5027672;28;20394;-77
2021/12/23 08:42:10;;;;;;;37.88;22.15;;;-0.80;99.90;;;;;;5038516;28;20054;-79
2021/12/23 08:44:40;;;;;;;36.13;23.25;;;-0.80;99.90;;;;;;5029805;28;20041;-81
2021/12/23 08:47:06;;;;;;;36.70;21.77;;;-0.70;99.90;;;;;;5042559;28;20017;-78
2021/12/23 08:49:32;;;;;;;39.03;21.88;;;-0.60;99.90;;;;;;5037909;28;20482;-79
2021/12/23 08:51:57;;;;;;;38.60;22.25;;;-0.70;99.90;;;;;;5034326;28;20052;-78
2021/12/23 08:54:23;;;;;;;36.33;20.98;;;-0.60;99.90;;;;;;5033673;28;20048;-81
2021/12/23 08:56:48;;;;;;;36.30;21.02;;;-0.50;99.90;;;;;;5029499;28;20501;-79
2021/12/23 08:59:14;;;;;;;37.67;23.15;;;-0.30;99.90;;;;;;5028387;28;20033;-78
2021/12/23 09:01:40;;;;;;;33.38;22.17;;;-0.20;99.90;;;;;;5031560;28;20028;-79
2021/12/23 09:04:06;;;;;;;37.00;21.42;;;-0.10;99.90;;;;;;5039022;28;20079;-79
2021/12/23 09:06:32;;;;;;;35.65;22.50;;;-0.20;99.90;;;;;;5033134;28;20034;-80
2021/12/23 09:08:58;;;;;;;34.30;20.90;;;-0.30;99.90;;;;;;5020006;28;20084;-78
2021/12/23 09:11:25;;;;;;;35.33;21.63;;;-0.20;99.90;;;;;;5022571;28;20026;-79
2021/12/23 09:13:51;;;;;;;34.88;20.90;;;0.10;99.90;;;;;;5039973;28;20026;-79
2021/12/23 09:16:18;;;;;;;35.60;22.42;;;0.40;99.90;;;;;;5037382;28;20021;-79
2021/12/23 09:18:44;;;;;;;37.00;22.42;;;0.50;99.90;;;;;;5037844;28;20014;-79
2021/12/23 09:21:11;;;;;;;34.40;20.73;;;0.30;99.90;;;;;;5034370;28;20053;-79
2021/12/23 09:23:36;;;;;;;33.65;20.52;;;0.40;99.90;;;;;;5022300;28;20053;-79
2021/12/23 09:26:08;;;;;;;37.80;22.60;;;0.40;99.90;;;;;;5020860;28;20116;-79
2021/12/23 09:29:08;;;;;;;35.67;20.30;;;0.40;99.90;;;;;;5024151;28;20385;-79
2021/12/23 09:34:10;;;;;;;34.63;20.67;;;0.70;99.90;;;;;;5030301;28;20159;-77
2021/12/23 09:36:38;;;;;;;31.08;20.60;;;0.90;99.90;;;;;;5021626;28;20102;-79
2021/12/23 09:39:06;;;;;;;38.95;23.02;;;0.90;99.90;;;;;;5018107;28;20034;-78
2021/12/23 09:41:33;;;;;;;42.13;21.83;;;0.90;99.90;;;;;;5021532;28;20029;-78
2021/12/23 09:44:00;;;;;;;38.63;22.38;;;1.00;99.90;;;;;;5024765;28;20060;-79
2021/12/23 09:46:26;;;;;;;35.00;20.15;;;1.00;99.90;;;;;;5023008;28;20021;-79
2021/12/23 09:48:52;;;;;;;31.02;20.58;;;1.00;99.90;;;;;;5024022;28;20750;-79
2021/12/23 09:51:20;;;;;;;34.42;20.02;;;1.00;99.90;;;;;;5018523;28;20482;-78
2021/12/23 09:53:55;;;;;;;38.95;21.75;;;1.10;99.90;;;;;;5023000;28;20029;-78
2021/12/23 09:56:20;;;;;;;35.92;20.13;;;1.10;99.90;;;;;;5019061;28;20017;-78
2021/12/23 09:58:46;;;;;;;30.98;21.05;;;1.20;99.90;;;;;;5026283;28;20080;-78
2021/12/23 10:01:12;;;;;;;34.50;20.15;;;1.10;99.90;;;;;;5025650;28;20060;-79
2021/12/23 10:03:39;;;;;;;35.85;21.95;;;1.30;99.90;;;;;;5027390;28;20034;-78
2021/12/23 10:06:05;;;;;;;38.65;21.63;;;1.30;99.90;;;;;;5023487;28;20049;-79
2021/12/23 10:08:31;;;;;;;36.75;21.52;;;1.50;99.90;;;;;;5024911;28;20445;-79
2021/12/23 10:11:08;;;;;;;32.90;20.10;;;1.70;99.90;;;;;;5022456;28;20026;-81
2021/12/23 10:38:50;;;;;;;33.40;20.73;;;2.00;99.90;;;;;;5014936;28;20033;-81
2021/12/23 10:41:22;;;;;;;;;;;2.00;99.90;;;;;;5019071;28;20026;-78
2021/12/23 10:44:00;;;;;;;34.08;19.17;;;2.10;99.90;;;;;;5012509;28;19979;-79
2021/12/23 10:46:30;;;;;;;31.30;20.17;;;2.10;99.90;;;;;;5013815;28;20555;-80
2021/12/23 10:52:06;;;;;;;32.13;20.42;;;2.40;99.90;;;;;;5016748;28;20082;-79
2021/12/23 11:00:28;;;;;;;33.13;21.25;;;2.60;99.90;;;;;;5024976;28;20041;-80
2021/12/23 11:04:07;;;;;;;31.27;20.30;;;2.70;99.90;;;;;;5027534;28;20025;-80
2021/12/23 11:09:00;;;;;;;31.55;20.90;;;2.70;99.90;;;;;;5019566;28;20099;-79
2021/12/23 11:28:54;;;;;;;33.65;18.95;;;3.00;99.90;;;;;;5014152;28;20076;-80
2021/12/23 11:40:04;;;;;;;32.85;19.95;;;3.20;99.90;;;;;;5010202;28;20109;-79
2021/12/23 11:45:16;;;;;;;31.95;20.52;;;3.40;99.90;;;;;;4994939;28;20483;-81
2021/12/23 11:47:42;;;;;;;35.22;21.38;;;3.60;99.90;;;;;;5018347;28;20025;-79
2021/12/23 11:50:18;;;;;;;31.33;20.70;;;3.60;99.90;;;;;;5019499;28;20501;-78
2021/12/23 11:52:44;;;;;;;27.40;19.05;;;3.70;99.90;;;;;;5014499;28;20569;-79
2021/12/23 11:55:10;;;;;;;30.85;19.58;;;3.80;99.90;;;;;;5021803;28;20101;-79
2021/12/23 11:57:40;;;;;;;29.80;18.85;;;3.90;99.90;;;;;;5012004;28;20068;-79
2021/12/23 12:00:17;;;;;;;31.13;18.73;;;4.00;99.90;;;;;;5019346;28;20030;-80
2021/12/23 12:02:43;;;;;;;26.17;17.70;;;4.10;99.90;;;;;;5020267;28;20052;-79
2021/12/23 12:05:18;;;;;;;32.67;19.25;;;4.10;99.90;;;;;;5024801;28;20040;-79
2021/12/23 12:07:44;;;;;;;27.65;18.70;;;4.20;99.90;;;;;;5019639;28;20071;-78
2021/12/23 12:10:17;;;;;;;29.70;18.20;;;4.20;99.90;;;;;;5026950;28;20022;-79
2021/12/23 12:13:10;;;;;;;30.80;19.02;;;4.30;99.90;;;;;;5020303;28;20083;-78
2021/12/23 12:15:38;;;;;;;32.15;18.33;;;4.30;99.90;;;;;;5020047;28;20544;-77
2021/12/23 12:18:06;;;;;;;27.52;19.02;;;4.30;99.90;;;;;;5018942;28;20080;-78
2021/12/23 12:20:42;;;;;;;32.28;20.20;;;4.30;99.90;;;;;;5015247;28;20455;-73
2021/12/23 12:23:12;;;;;;;28.40;19.05;;;4.50;99.90;;;;;;5012882;28;20018;-73
2021/12/23 12:25:41;;;;;;;31.00;20.48;;;4.40;99.90;;;;;;5022739;28;20067;-74
2021/12/23 12:28:06;;;;;;;26.20;17.90;;;4.40;99.90;;;;;;5024582;28;20096;-74
2021/12/23 12:30:35;;;;;;;32.47;19.15;;;4.40;99.90;;;;;;5021060;28;20113;-76
2021/12/23 12:33:12;;;;;;;33.20;20.42;;;4.40;99.90;;;;;;5026864;28;20025;-76
2021/12/23 12:35:39;;;;;;;28.15;18.60;;;4.40;99.90;;;;;;5020650;28;20573;-76
2021/12/23 12:38:18;;;;;;;31.17;19.52;;;4.30;99.90;;;;;;5025760;28;20025;-76
2021/12/23 12:41:11;;;;;;;25.67;17.63;;;4.30;99.90;;;;;;5026637;28;20029;-75
2021/12/23 12:43:52;;;;;;;27.45;19.02;;;4.40;99.90;;;;;;5020713;28;20056;-74
2021/12/23 12:46:34;;;;;;;28.00;18.95;;;4.30;99.90;;;;;;5026368;28;20030;-75
2021/12/23 12:49:07;;;;;;;;;;;4.30;99.90;;;;;;5014944;28;20018;-74
2021/12/23 12:51:36;;;;;;;35.47;19.10;;;4.30;99.90;;;;;;5031554;28;20012;-76
2021/12/23 12:54:07;;;;;;;29.63;19.63;;;4.30;99.90;;;;;;5024020;28;20376;-74
2021/12/23 12:56:36;;;;;;;30.90;19.15;;;4.20;99.90;;;;;;5024365;28;20442;-74
2021/12/23 12:59:06;;;;;;;35.97;19.58;;;4.20;99.90;;;;;;5017116;28;20563;-74
2021/12/23 13:01:42;;;;;;;33.05;18.63;;;4.00;99.90;;;;;;5021057;28;20052;-74
2021/12/23 13:04:41;;;;;;;37.08;20.30;;;4.10;99.90;;;;;;5025139;28;20033;-74
2021/12/23 13:07:28;;;;;;;37.85;20.08;;;4.00;99.90;;;;;;5018479;28;20129;-74
2021/12/23 13:10:05;;;;;;;28.17;18.60;;;3.90;99.90;;;;;;5017653;28;20048;-73
2021/12/23 13:12:45;;;;;;;32.85;19.75;;;4.00;99.90;;;;;;5010647;28;20485;-75
2021/12/23 13:15:35;;;;;;;34.08;17.75;;;4.10;99.90;;;;;;5013336;28;20044;-74
2021/12/23 13:18:06;;;;;;;39.67;18.73;;;4.30;99.90;;;;;;5011609;28;20038;-75
2021/12/23 13:20:44;;;;;;;29.40;20.10;;;4.20;99.90;;;;;;5024772;28;20091;-74
2021/12/23 13:23:19;;;;;;;32.00;19.25;;;4.40;99.90;;;;;;5022712;28;20026;-74
2021/12/23 13:25:56;;;;;;;34.00;20.25;;;4.60;99.90;;;;;;5013704;28;20478;-74
2021/12/23 13:28:45;;;;;;;27.33;17.70;;;4.60;99.90;;;;;;5024155;28;20052;-75
2021/12/23 13:31:16;;;;;;;29.02;16.60;;;4.50;99.90;;;;;;5017827;28;20124;-74
2021/12/23 13:33:51;;;;;;;28.97;18.57;;;4.40;99.90;;;;;;5021027;28;20032;-76
2021/12/23 13:36:24;;;;;;;31.88;18.95;;;4.40;99.90;;;;;;5027510;28;20269;-78
2021/12/23 13:38:52;;;;;;;28.70;18.65;;;4.40;99.90;;;;;;5023917;28;20490;-77
2021/12/23 13:41:24;;;;;;;30.70;17.35;;;4.50;99.90;;;;;;5025701;28;20029;-77
2021/12/23 13:43:51;;;;;;;26.13;17.45;;;4.40;99.90;;;;;;5022738;28;20017;-77
2021/12/23 13:46:17;;;;;;;27.75;17.63;;;4.60;99.90;;;;;;5027398;28;20026;-78
2021/12/23 13:49:02;;;;;;;27.80;18.98;;;4.40;99.90;;;;;;5017086;28;20088;-77
2021/12/23 13:51:31;;;;;;;30.20;18.13;;;4.40;99.90;;;;;;5023782;28;20031;-77
2021/12/23 13:54:12;;;;;;;27.20;18.58;;;4.30;99.90;;;;;;5023570;28;20053;-78